Pacific Grove, California
Current Conditions -  °F | °C
As of 8:40 AM on Saturday 25 Oct 2014 (Local Time) from KMRY Reporting Station
Haze Haze  
Wind Chill: 61°   Ceiling: 2500
Heat Index: 61°   Visibility: 4mi
Dew Point: 57°   Wind: 12mph
Humidity: 88%   Direction: 210°SSW
Pressure: 30.05"   Gusts: NA
Location:  36.62°N, 121.91°W
Report Text: KMRY 251540Z 21010KT 4SM BR SCT010 SCT017 OVC025 16/14 A3005 RMK AO2 RAB01E13 P0011
Loading
Personal Weather Stations






























Interactive Weather Map
Tropical Storm Tracking
New forecast layout! Learn more

10-Day Weather Forecast

Advertisements
Track Severe Weather on mobile